Time;durP1;ratioP1;P1;durP2;ratioP2;P2;SDS_P1;SDS_P2;PMS_P1;PMS_P2;Temp;Humidity;BMP_temperature;BMP_pressure;BME280_temperature;BME280_humidity;BME280_pressure;Samples;Min_cycle;Max_cycle;Signal;HPM_P1;HPM_P2
2023/03/23 00:00:54;;;;;;;2.10;1.20;;;;;;;;;;5091692;28;20089;-60
2023/03/23 00:03:22;;;;;;;1.00;0.55;;;;;;;;;;5092911;28;20518;-61
2023/03/23 00:05:51;;;;;;;3.33;1.70;;;;;;;;;;5092707;28;20036;-60
2023/03/23 00:08:21;;;;;;;1.75;1.10;;;;;;;;;;5091853;28;20023;-60
2023/03/23 00:10:54;;;;;;;2.15;1.13;;;;;;;;;;5092419;28;20028;-61
2023/03/23 00:13:21;;;;;;;3.55;1.33;;;;;;;;;;5087821;28;20020;-61
2023/03/23 00:15:53;;;;;;;1.30;0.82;;;;;;;;;;5087429;28;20555;-61
2023/03/23 00:18:21;;;;;;;1.23;0.70;;;;;;;;;;5087103;28;20548;-60
2023/03/23 00:20:51;;;;;;;1.52;0.80;;;;;;;;;;5087438;28;20506;-61
2023/03/23 00:23:19;;;;;;;1.83;0.75;;;;;;;;;;5091167;28;20024;-60
2023/03/23 00:25:49;;;;;;;1.25;0.85;;;;;;;;;;5092558;28;20106;-60
2023/03/23 00:28:17;;;;;;;0.98;0.70;;;;;;;;;;5092233;28;20382;-60
2023/03/23 00:30:44;;;;;;;2.05;1.10;;;;;;;;;;5092384;28;20032;-60
2023/03/23 00:33:12;;;;;;;5.50;0.85;;;;;;;;;;5091854;28;20047;-60
2023/03/23 00:35:40;;;;;;;2.20;0.70;;;;;;;;;;5087482;28;20028;-61
2023/03/23 00:38:08;;;;;;;2.88;1.08;;;;;;;;;;5087226;28;20556;-61
2023/03/23 00:40:35;;;;;;;1.90;0.88;;;;;;;;;;5087462;28;20028;-61
2023/03/23 00:43:03;;;;;;;1.10;0.90;;;;;;;;;;5086903;28;20051;-62
2023/03/23 00:45:30;;;;;;;0.65;0.60;;;;;;;;;;5098583;28;20023;-61
2023/03/23 00:48:01;;;;;;;8.23;2.10;;;;;;;;;;5112346;28;20360;-61
2023/03/23 00:50:28;;;;;;;3.58;1.80;;;;;;;;;;5116150;28;20032;-61
2023/03/23 00:52:56;;;;;;;2.40;1.45;;;;;;;;;;5102271;28;20032;-60
2023/03/23 00:55:23;;;;;;;1.90;1.08;;;;;;;;;;5095791;28;20111;-61
2023/03/23 00:57:51;;;;;;;4.53;1.00;;;;;;;;;;5091778;28;20111;-60
2023/03/23 01:00:19;;;;;;;3.00;1.67;;;;;;;;;;5091106;28;20039;-60
2023/03/23 01:02:45;;;;;;;2.10;1.42;;;;;;;;;;5090763;28;20538;-60
2023/03/23 01:05:14;;;;;;;2.55;1.20;;;;;;;;;;5091147;28;20363;-61
2023/03/23 01:07:41;;;;;;;2.50;1.23;;;;;;;;;;5094543;28;20031;-60
2023/03/23 01:10:08;;;;;;;6.22;1.25;;;;;;;;;;5095511;28;20027;-60
2023/03/23 01:12:35;;;;;;;2.22;0.82;;;;;;;;;;5095281;28;20028;-61
2023/03/23 01:15:02;;;;;;;9.77;1.47;;;;;;;;;;5095920;28;20024;-60
2023/03/23 01:17:29;;;;;;;4.10;1.65;;;;;;;;;;5095040;28;20107;-61
2023/03/23 01:19:56;;;;;;;2.08;1.55;;;;;;;;;;5091694;28;20031;-61
2023/03/23 01:22:22;;;;;;;1.98;1.42;;;;;;;;;;5090823;28;20036;-61
2023/03/23 01:24:49;;;;;;;2.33;1.50;;;;;;;;;;5090590;28;20055;-61
2023/03/23 01:27:16;;;;;;;2.03;1.30;;;;;;;;;;5090579;28;20089;-61
2023/03/23 01:29:43;;;;;;;2.03;1.33;;;;;;;;;;5093196;28;20032;-61
2023/03/23 01:32:09;;;;;;;8.53;2.40;;;;;;;;;;5095170;28;20370;-61
2023/03/23 01:34:36;;;;;;;3.33;1.67;;;;;;;;;;5095764;28;20395;-61
2023/03/23 01:37:06;;;;;;;4.67;1.50;;;;;;;;;;5095582;28;20114;-61
2023/03/23 01:39:33;;;;;;;2.30;1.47;;;;;;;;;;5094290;28;20443;-61
2023/03/23 01:42:00;;;;;;;2.33;1.60;;;;;;;;;;5092263;28;20055;-61
2023/03/23 01:44:33;;;;;;;13.27;1.73;;;;;;;;;;5090220;28;20111;-61
2023/03/23 01:46:59;;;;;;;2.00;1.20;;;;;;;;;;5110158;28;20026;-60
2023/03/23 01:49:32;;;;;;;2.40;1.33;;;;;;;;;;5105433;28;20454;-61
2023/03/23 01:52:01;;;;;;;7.43;2.27;;;;;;;;;;5092566;28;20024;-61
2023/03/23 01:54:29;;;;;;;1.20;0.97;;;;;;;;;;5095286;28;20050;-61
2023/03/23 01:57:10;;;;;;;1.83;1.27;;;;;;;;;;5095175;28;20494;-61
2023/03/23 01:59:37;;;;;;;3.17;1.20;;;;;;;;;;5094199;28;20094;-61
2023/03/23 02:02:04;;;;;;;1.17;0.97;;;;;;;;;;5094070;28;20096;-61
2023/03/23 02:04:31;;;;;;;2.03;1.43;;;;;;;;;;5091152;28;20411;-61
2023/03/23 02:06:58;;;;;;;2.07;1.50;;;;;;;;;;5089982;28;20048;-61
2023/03/23 02:09:28;;;;;;;2.47;1.33;;;;;;;;;;5088731;28;20454;-61
2023/03/23 02:11:55;;;;;;;3.33;1.50;;;;;;;;;;5085095;28;20020;-61
2023/03/23 02:14:22;;;;;;;2.10;1.10;;;;;;;;;;5092067;28;20019;-61
2023/03/23 02:16:56;;;;;;;2.93;1.43;;;;;;;;;;5094067;28;20016;-61
2023/03/23 02:19:32;;;;;;;2.60;1.58;;;;;;;;;;5094377;28;20024;-61
2023/03/23 02:22:01;;;;;;;2.00;1.17;;;;;;;;;;5074463;28;20107;-61
2023/03/23 02:24:44;;;;;;;1.57;1.07;;;;;;;;;;5074350;28;20032;-61
2023/03/23 02:27:29;;;;;;;3.93;1.60;;;;;;;;;;5090183;28;20062;-61
2023/03/23 02:29:58;;;;;;;9.65;3.05;;;;;;;;;;5089409;28;20063;-61
2023/03/23 02:32:39;;;;;;;9.23;2.60;;;;;;;;;;5089490;28;20103;-61
2023/03/23 02:35:09;;;;;;;2.57;1.40;;;;;;;;;;5088678;28;20084;-60
2023/03/23 02:37:47;;;;;;;1.87;1.10;;;;;;;;;;5093914;28;20026;-61
2023/03/23 02:40:18;;;;;;;2.33;1.33;;;;;;;;;;5094353;28;20016;-61
2023/03/23 02:42:46;;;;;;;1.80;0.97;;;;;;;;;;5094343;28;20036;-61
2023/03/23 02:45:14;;;;;;;2.33;1.53;;;;;;;;;;5094747;28;20048;-61
2023/03/23 02:47:42;;;;;;;13.10;1.77;;;;;;;;;;5093327;28;20027;-61
2023/03/23 02:50:11;;;;;;;4.40;2.43;;;;;;;;;;5088575;28;20094;-61
2023/03/23 02:52:40;;;;;;;2.50;1.53;;;;;;;;;;5089075;28;20046;-62
2023/03/23 02:55:07;;;;;;;5.33;2.37;;;;;;;;;;5088980;28;20027;-61
2023/03/23 02:57:35;;;;;;;2.17;1.53;;;;;;;;;;5088882;28;20130;-60
2023/03/23 03:00:01;;;;;;;3.47;1.90;;;;;;;;;;5093374;28;20423;-60
2023/03/23 03:02:32;;;;;;;1.83;1.40;;;;;;;;;;5093970;28;20051;-61
2023/03/23 03:05:05;;;;;;;14.73;2.43;;;;;;;;;;5073321;28;20032;-60
2023/03/23 03:07:48;;;;;;;2.93;1.70;;;;;;;;;;5073460;28;20119;-60
2023/03/23 03:10:19;;;;;;;2.70;1.43;;;;;;;;;;5072519;28;20079;-61
2023/03/23 03:12:48;;;;;;;4.40;1.70;;;;;;;;;;5069407;28;20025;-61
2023/03/23 03:15:35;;;;;;;3.17;2.00;;;;;;;;;;5088320;28;20077;-61
2023/03/23 03:18:06;;;;;;;3.30;1.90;;;;;;;;;;5081171;28;20051;-61
2023/03/23 03:20:34;;;;;;;6.73;2.07;;;;;;;;;;5089454;28;20371;-60
2023/03/23 03:23:01;;;;;;;5.47;2.27;;;;;;;;;;5093353;28;20084;-60
2023/03/23 03:25:28;;;;;;;3.30;1.83;;;;;;;;;;5093323;28;20073;-60
2023/03/23 03:27:56;;;;;;;3.40;1.90;;;;;;;;;;5093159;28;20398;-60
2023/03/23 03:30:27;;;;;;;1.63;1.07;;;;;;;;;;5093096;28;20050;-60
2023/03/23 03:32:54;;;;;;;9.77;1.97;;;;;;;;;;5091601;28;20386;-60
2023/03/23 03:35:22;;;;;;;3.80;1.80;;;;;;;;;;5088183;28;20118;-60
2023/03/23 03:37:50;;;;;;;19.80;2.33;;;;;;;;;;5088124;28;20364;-60
2023/03/23 03:40:18;;;;;;;7.00;2.20;;;;;;;;;;5088029;28;20028;-61
2023/03/23 03:42:45;;;;;;;10.50;3.40;;;;;;;;;;5088129;28;20016;-61
2023/03/23 03:45:15;;;;;;;17.73;4.67;;;;;;;;;;5082682;28;20034;-60
2023/03/23 03:47:42;;;;;;;4.43;2.57;;;;;;;;;;5108729;28;20031;-60
2023/03/23 03:50:09;;;;;;;5.03;3.57;;;;;;;;;;5092762;28;20024;-60
2023/03/23 03:52:36;;;;;;;24.80;5.93;;;;;;;;;;5105183;28;20076;-60
2023/03/23 03:55:03;;;;;;;11.70;5.37;;;;;;;;;;5091585;28;20104;-60
2023/03/23 03:57:29;;;;;;;10.97;6.30;;;;;;;;;;5097017;28;20063;-59
2023/03/23 03:59:56;;;;;;;6.87;4.37;;;;;;;;;;5107576;28;20027;-60
2023/03/23 04:02:25;;;;;;;4.73;2.00;;;;;;;;;;5107816;28;20415;-60
2023/03/23 04:04:52;;;;;;;3.67;2.10;;;;;;;;;;5108193;28;20098;-60
2023/03/23 04:07:21;;;;;;;16.97;3.00;;;;;;;;;;5097428;28;20494;-59
2023/03/23 04:09:47;;;;;;;8.87;4.07;;;;;;;;;;5092568;28;20028;-60
2023/03/23 04:12:15;;;;;;;5.17;2.27;;;;;;;;;;5092645;28;20020;-60
2023/03/23 04:14:41;;;;;;;3.93;2.17;;;;;;;;;;5092559;28;20538;-59
2023/03/23 04:17:11;;;;;;;7.60;2.40;;;;;;;;;;5091994;28;20441;-60
2023/03/23 04:19:38;;;;;;;4.13;1.80;;;;;;;;;;5087473;28;20047;-60
2023/03/23 04:22:06;;;;;;;2.83;1.57;;;;;;;;;;5087612;28;20032;-60
2023/03/23 04:24:33;;;;;;;1.40;1.10;;;;;;;;;;5086810;28;20104;-60
2023/03/23 04:27:01;;;;;;;4.53;2.07;;;;;;;;;;5087436;28;20057;-60
2023/03/23 04:29:28;;;;;;;2.40;1.77;;;;;;;;;;5092306;28;20040;-60
2023/03/23 04:31:55;;;;;;;3.00;2.03;;;;;;;;;;5092458;28;20020;-60
2023/03/23 04:34:22;;;;;;;4.47;2.13;;;;;;;;;;5092063;28;20021;-60
2023/03/23 04:36:50;;;;;;;2.43;1.73;;;;;;;;;;5092325;28;20028;-59
2023/03/23 04:39:17;;;;;;;3.07;2.00;;;;;;;;;;5092309;28;20070;-60
2023/03/23 04:41:45;;;;;;;3.53;2.10;;;;;;;;;;5087519;28;20231;-60
2023/03/23 04:44:17;;;;;;;2.23;1.43;;;;;;;;;;5087266;28;20470;-60
2023/03/23 04:46:45;;;;;;;2.80;1.70;;;;;;;;;;5104859;28;20038;-60
2023/03/23 04:49:14;;;;;;;9.87;3.93;;;;;;;;;;5107319;28;20448;-60
2023/03/23 04:51:40;;;;;;;2.87;1.70;;;;;;;;;;5112022;28;20023;-59
2023/03/23 04:54:07;;;;;;;2.63;1.87;;;;;;;;;;5112797;28;20028;-59
2023/03/23 04:56:34;;;;;;;7.57;3.40;;;;;;;;;;5112526;28;20513;-59
2023/03/23 04:59:00;;;;;;;5.87;2.23;;;;;;;;;;5112534;28;20111;-59
2023/03/23 05:01:28;;;;;;;4.83;2.60;;;;;;;;;;5112781;28;20023;-59
2023/03/23 05:03:55;;;;;;;3.50;2.20;;;;;;;;;;5107422;28;20035;-59
2023/03/23 05:06:22;;;;;;;3.43;1.90;;;;;;;;;;5102064;28;20343;-60
2023/03/23 05:08:49;;;;;;;3.07;2.03;;;;;;;;;;5086890;28;20032;-60
2023/03/23 05:11:16;;;;;;;5.00;2.13;;;;;;;;;;5086974;28;20522;-59
2023/03/23 05:13:44;;;;;;;5.33;2.13;;;;;;;;;;5091022;28;20096;-59
2023/03/23 05:16:11;;;;;;;1.87;0.90;;;;;;;;;;5091949;28;20383;-60
2023/03/23 05:18:37;;;;;;;6.53;2.33;;;;;;;;;;5108387;28;20028;-59
2023/03/23 05:21:04;;;;;;;7.70;1.97;;;;;;;;;;5094025;28;20038;-59
2023/03/23 05:23:33;;;;;;;2.40;1.87;;;;;;;;;;5111920;28;20445;-59
2023/03/23 05:26:03;;;;;;;5.57;1.50;;;;;;;;;;5107641;28;20433;-59
2023/03/23 05:28:30;;;;;;;3.93;2.50;;;;;;;;;;5107034;28;20070;-61
2023/03/23 05:30:57;;;;;;;2.80;2.13;;;;;;;;;;5107313;28;20019;-60
2023/03/23 05:33:25;;;;;;;4.17;2.43;;;;;;;;;;5107172;28;20032;-60
2023/03/23 05:35:52;;;;;;;11.53;1.40;;;;;;;;;;5113393;28;20027;-59
2023/03/23 05:38:19;;;;;;;1.97;1.53;;;;;;;;;;5115350;28;20035;-59
2023/03/23 05:40:46;;;;;;;2.30;1.60;;;;;;;;;;5115961;28;20081;-59
2023/03/23 05:43:12;;;;;;;18.73;2.20;;;;;;;;;;5105444;28;20020;-59
2023/03/23 05:45:39;;;;;;;1.70;1.30;;;;;;;;;;5104014;28;20470;-60
2023/03/23 05:48:06;;;;;;;4.20;2.37;;;;;;;;;;5111774;28;20023;-60
2023/03/23 05:50:33;;;;;;;3.37;1.87;;;;;;;;;;5110664;28;20482;-59
2023/03/23 05:52:59;;;;;;;2.57;1.40;;;;;;;;;;5110502;28;20027;-59
2023/03/23 05:55:26;;;;;;;2.83;1.60;;;;;;;;;;5110158;28;20470;-59
2023/03/23 05:57:53;;;;;;;8.90;2.53;;;;;;;;;;5113402;28;20077;-59
2023/03/23 06:00:22;;;;;;;2.63;1.73;;;;;;;;;;5115222;28;20103;-59
2023/03/23 06:02:50;;;;;;;2.30;1.63;;;;;;;;;;5115447;28;20402;-59
2023/03/23 06:05:17;;;;;;;4.37;2.77;;;;;;;;;;5115448;28;20493;-59
2023/03/23 06:07:44;;;;;;;4.83;2.50;;;;;;;;;;5115159;28;20030;-59
2023/03/23 06:10:11;;;;;;;4.43;2.10;;;;;;;;;;5112008;28;20039;-59
2023/03/23 06:12:39;;;;;;;3.30;2.10;;;;;;;;;;5109748;28;20382;-59
2023/03/23 06:15:06;;;;;;;2.87;1.70;;;;;;;;;;5109993;28;20016;-59
2023/03/23 06:17:33;;;;;;;5.23;2.13;;;;;;;;;;5110053;28;20020;-60
2023/03/23 06:20:00;;;;;;;2.20;1.53;;;;;;;;;;5112597;28;20016;-60
2023/03/23 06:22:28;;;;;;;3.80;1.83;;;;;;;;;;5114971;28;20148;-59
2023/03/23 06:24:56;;;;;;;3.27;1.77;;;;;;;;;;5114173;28;20083;-60
2023/03/23 06:27:24;;;;;;;2.27;1.53;;;;;;;;;;5092809;28;20028;-59
2023/03/23 06:29:50;;;;;;;13.10;2.83;;;;;;;;;;5094308;28;20111;-59
2023/03/23 06:32:17;;;;;;;2.80;2.07;;;;;;;;;;5088394;28;20043;-58
2023/03/23 06:34:46;;;;;;;7.50;3.17;;;;;;;;;;5069155;28;20032;-58
2023/03/23 06:37:13;;;;;;;11.47;2.80;;;;;;;;;;5078594;28;20120;-60
2023/03/23 06:39:39;;;;;;;3.30;1.90;;;;;;;;;;5089391;28;20078;-58
2023/03/23 06:42:11;;;;;;;5.27;2.90;;;;;;;;;;5091315;28;20089;-58
2023/03/23 06:44:37;;;;;;;29.90;2.43;;;;;;;;;;5093577;28;20060;-59
2023/03/23 06:47:04;;;;;;;2.13;1.77;;;;;;;;;;5093272;28;20028;-58
2023/03/23 06:49:32;;;;;;;2.67;1.87;;;;;;;;;;5093765;28;20098;-58
2023/03/23 06:52:01;;;;;;;2.57;1.87;;;;;;;;;;5093560;28;20040;-58
2023/03/23 06:54:28;;;;;;;3.07;2.30;;;;;;;;;;5090824;28;20437;-58
2023/03/23 06:56:54;;;;;;;5.23;2.77;;;;;;;;;;5088436;28;20110;-58
2023/03/23 06:59:21;;;;;;;4.50;2.83;;;;;;;;;;5088412;28;20040;-59
2023/03/23 07:01:48;;;;;;;3.50;1.87;;;;;;;;;;5088043;28;20024;-58
2023/03/23 07:04:16;;;;;;;2.77;2.07;;;;;;;;;;5089866;28;20024;-58
2023/03/23 07:06:42;;;;;;;2.77;2.03;;;;;;;;;;5093268;28;20102;-58
2023/03/23 07:09:09;;;;;;;2.70;2.00;;;;;;;;;;5093235;28;20411;-59
2023/03/23 07:11:37;;;;;;;10.70;1.87;;;;;;;;;;5093406;28;20031;-58
2023/03/23 07:14:04;;;;;;;2.47;1.87;;;;;;;;;;5092920;28;20115;-59
2023/03/23 07:16:31;;;;;;;2.90;2.00;;;;;;;;;;5091220;28;20834;-58
2023/03/23 07:18:58;;;;;;;4.47;2.43;;;;;;;;;;5087586;28;20470;-58
2023/03/23 07:21:25;;;;;;;6.70;2.23;;;;;;;;;;5088327;28;20077;-58
2023/03/23 07:23:52;;;;;;;2.03;1.17;;;;;;;;;;5087576;28;20081;-59
2023/03/23 07:26:19;;;;;;;2.07;1.50;;;;;;;;;;5088689;28;20024;-59
2023/03/23 07:28:46;;;;;;;1.77;1.40;;;;;;;;;;5093051;28;20501;-58
2023/03/23 07:31:13;;;;;;;2.70;1.90;;;;;;;;;;5092776;28;20073;-58
2023/03/23 07:33:40;;;;;;;6.20;2.23;;;;;;;;;;5092597;28;20059;-58
2023/03/23 07:36:07;;;;;;;19.70;2.67;;;;;;;;;;5092542;28;20360;-58
2023/03/23 07:38:33;;;;;;;3.23;2.17;;;;;;;;;;5090948;28;20511;-58
2023/03/23 07:41:00;;;;;;;2.70;2.10;;;;;;;;;;5087484;28;20023;-58
2023/03/23 07:43:27;;;;;;;3.50;2.53;;;;;;;;;;5087311;28;22330;-58
2023/03/23 07:45:54;;;;;;;2.53;1.77;;;;;;;;;;5087756;28;20470;-58
2023/03/23 07:48:20;;;;;;;2.10;1.57;;;;;;;;;;5087878;28;20620;-58
2023/03/23 07:50:47;;;;;;;2.93;1.70;;;;;;;;;;5092816;28;20032;-58
2023/03/23 07:53:14;;;;;;;1.83;1.40;;;;;;;;;;5092041;28;20024;-58
2023/03/23 07:55:40;;;;;;;3.37;1.80;;;;;;;;;;5092611;28;20479;-58
2023/03/23 07:58:08;;;;;;;3.13;1.77;;;;;;;;;;5092477;28;20046;-58
2023/03/23 08:00:35;;;;;;;3.07;2.37;;;;;;;;;;5091213;28;20042;-58
2023/03/23 08:03:02;;;;;;;2.87;1.97;;;;;;;;;;5086788;28;20020;-59
2023/03/23 08:05:29;;;;;;;9.03;2.40;;;;;;;;;;5087148;28;20051;-58
2023/03/23 08:07:56;;;;;;;3.43;2.20;;;;;;;;;;5087518;28;20032;-58
2023/03/23 08:10:23;;;;;;;2.97;1.07;;;;;;;;;;5086402;28;20040;-59
2023/03/23 08:12:54;;;;;;;3.27;2.03;;;;;;;;;;5092366;28;20028;-59
2023/03/23 08:15:22;;;;;;;2.93;1.93;;;;;;;;;;5092166;28;20024;-58
2023/03/23 08:17:51;;;;;;;1.60;1.00;;;;;;;;;;5092175;28;20021;-59
2023/03/23 08:20:18;;;;;;;1.50;1.13;;;;;;;;;;5092114;28;20035;-58
2023/03/23 08:22:46;;;;;;;3.03;1.73;;;;;;;;;;5091654;28;20421;-58
2023/03/23 08:25:17;;;;;;;2.47;1.83;;;;;;;;;;5086447;28;20032;-59
2023/03/23 08:27:44;;;;;;;9.40;2.63;;;;;;;;;;5086763;28;20035;-58
2023/03/23 08:30:13;;;;;;;7.57;2.27;;;;;;;;;;5086837;28;20081;-59
2023/03/23 08:32:39;;;;;;;2.70;2.07;;;;;;;;;;5086795;28;20028;-58
2023/03/23 08:35:10;;;;;;;4.03;2.83;;;;;;;;;;5091758;28;20031;-59
2023/03/23 08:37:38;;;;;;;3.93;2.27;;;;;;;;;;5081827;28;20024;-59
2023/03/23 08:40:11;;;;;;;6.33;2.37;;;;;;;;;;5091505;28;20366;-59
2023/03/23 08:42:39;;;;;;;9.27;2.53;;;;;;;;;;5091954;28;20038;-59
2023/03/23 08:45:07;;;;;;;5.27;2.77;;;;;;;;;;5075328;28;20024;-58
2023/03/23 08:47:35;;;;;;;2.97;1.97;;;;;;;;;;5086416;28;20036;-59
2023/03/23 08:50:02;;;;;;;2.53;1.80;;;;;;;;;;5086520;28;20396;-59
2023/03/23 08:52:29;;;;;;;3.07;2.20;;;;;;;;;;5086583;28;20028;-59
2023/03/23 08:54:56;;;;;;;1.17;1.00;;;;;;;;;;5086332;28;20035;-58
2023/03/23 08:57:24;;;;;;;5.73;2.60;;;;;;;;;;5092078;28;20051;-59
2023/03/23 08:59:51;;;;;;;4.40;2.70;;;;;;;;;;5090984;28;20036;-58
2023/03/23 09:02:20;;;;;;;6.13;2.77;;;;;;;;;;5091850;28;20032;-59
2023/03/23 09:04:46;;;;;;;3.43;2.20;;;;;;;;;;5091491;28;20020;-58
2023/03/23 09:07:14;;;;;;;4.43;2.07;;;;;;;;;;5091941;28;20016;-58
2023/03/23 09:09:42;;;;;;;2.70;1.73;;;;;;;;;;5086825;28;20039;-59
2023/03/23 09:12:10;;;;;;;3.17;2.27;;;;;;;;;;5090327;28;20032;-59
2023/03/23 09:14:37;;;;;;;3.37;2.23;;;;;;;;;;5090136;28;20020;-58
2023/03/23 09:17:04;;;;;;;4.27;2.43;;;;;;;;;;5090843;28;20031;-59
2023/03/23 09:19:32;;;;;;;2.37;1.60;;;;;;;;;;5095257;28;20094;-58
2023/03/23 09:22:00;;;;;;;4.53;2.37;;;;;;;;;;5095587;28;20023;-58
2023/03/23 09:24:27;;;;;;;3.40;2.27;;;;;;;;;;5095311;28;20429;-58
2023/03/23 09:26:53;;;;;;;2.40;1.70;;;;;;;;;;5094997;28;20533;-58
2023/03/23 09:29:20;;;;;;;5.40;2.47;;;;;;;;;;5095521;28;20032;-58
2023/03/23 09:31:47;;;;;;;2.70;2.00;;;;;;;;;;5089911;28;20126;-59
2023/03/23 09:34:18;;;;;;;4.03;2.63;;;;;;;;;;5089768;28;20027;-58
2023/03/23 09:36:45;;;;;;;3.83;2.57;;;;;;;;;;5090344;28;20052;-58
2023/03/23 09:39:12;;;;;;;3.50;2.13;;;;;;;;;;5089839;28;20304;-59
2023/03/23 09:41:57;;;;;;;3.20;2.00;;;;;;;;;;5093901;28;20032;-58
2023/03/23 09:44:42;;;;;;;3.22;2.20;;;;;;;;;;5094768;28;20252;-58
2023/03/23 09:47:14;;;;;;;1.90;1.55;;;;;;;;;;5094977;28;20024;-58
2023/03/23 09:49:44;;;;;;;4.17;2.90;;;;;;;;;;5094226;28;20090;-59
2023/03/23 09:52:10;;;;;;;5.10;2.70;;;;;;;;;;5093916;28;20280;-58
2023/03/23 09:54:39;;;;;;;32.33;2.50;;;;;;;;;;5089283;28;20024;-59
2023/03/23 09:57:12;;;;;;;3.27;2.27;;;;;;;;;;5089774;28;20261;-58
2023/03/23 09:59:44;;;;;;;4.43;2.77;;;;;;;;;;5089407;28;20963;-59
2023/03/23 10:02:11;;;;;;;3.77;2.00;;;;;;;;;;5089884;28;20318;-58
2023/03/23 10:04:41;;;;;;;3.00;2.37;;;;;;;;;;5094703;28;20256;-58
2023/03/23 10:07:13;;;;;;;2.97;2.27;;;;;;;;;;5094958;28;20306;-58
2023/03/23 10:09:41;;;;;;;6.43;2.80;;;;;;;;;;5094355;28;20292;-58
2023/03/23 10:12:11;;;;;;;4.47;2.00;;;;;;;;;;5094376;28;20306;-58
2023/03/23 10:14:50;;;;;;;2.53;1.73;;;;;;;;;;5092753;28;20275;-58
2023/03/23 10:17:24;;;;;;;3.20;2.47;;;;;;;;;;5089038;28;20276;-58
2023/03/23 10:19:54;;;;;;;4.23;2.73;;;;;;;;;;5089233;28;20330;-58
2023/03/23 10:22:43;;;;;;;4.33;2.47;;;;;;;;;;5088239;28;20257;-58
2023/03/23 10:25:14;;;;;;;4.00;2.27;;;;;;;;;;5071599;28;20642;-58
2023/03/23 10:27:48;;;;;;;6.23;2.20;;;;;;;;;;5077225;28;20272;-58
2023/03/23 10:30:18;;;;;;;2.60;1.87;;;;;;;;;;5094259;28;20285;-59
2023/03/23 10:32:57;;;;;;;2.50;1.77;;;;;;;;;;5094139;28;20269;-58
2023/03/23 10:35:29;;;;;;;3.73;1.93;;;;;;;;;;5093211;28;20615;-58
2023/03/23 10:38:00;;;;;;;3.07;1.80;;;;;;;;;;5090459;28;20276;-59
2023/03/23 10:40:29;;;;;;;4.20;2.70;;;;;;;;;;5088836;28;20759;-58
2023/03/23 10:42:58;;;;;;;2.43;1.67;;;;;;;;;;5088935;28;20291;-58
2023/03/23 10:45:36;;;;;;;3.73;1.80;;;;;;;;;;5089050;28;20731;-58
2023/03/23 10:48:12;;;;;;;3.17;2.30;;;;;;;;;;5092161;28;20269;-58
2023/03/23 10:50:39;;;;;;;4.03;2.27;;;;;;;;;;5093474;28;20296;-58
2023/03/23 10:53:16;;;;;;;3.30;2.30;;;;;;;;;;5094089;28;21579;-58
2023/03/23 10:55:44;;;;;;;3.57;2.17;;;;;;;;;;5093502;28;20267;-58
2023/03/23 10:58:12;;;;;;;1.80;1.50;;;;;;;;;;5093404;28;20607;-58
2023/03/23 11:00:44;;;;;;;3.20;2.43;;;;;;;;;;5089035;28;20828;-58
2023/03/23 11:03:19;;;;;;;1.57;1.13;;;;;;;;;;5088472;28;20268;-58
2023/03/23 11:06:12;;;;;;;4.53;2.43;;;;;;;;;;5088344;28;20318;-59
2023/03/23 11:08:49;;;;;;;4.40;2.17;;;;;;;;;;5087455;28;20767;-58
2023/03/23 11:11:21;;;;;;;2.53;1.87;;;;;;;;;;5093426;28;20268;-58
2023/03/23 11:13:48;;;;;;;2.23;1.83;;;;;;;;;;5094071;28;20261;-58
2023/03/23 11:16:44;;;;;;;2.83;1.70;;;;;;;;;;5093718;28;20256;-58
2023/03/23 11:19:14;;;;;;;1.20;1.10;;;;;;;;;;5084378;28;20388;-58
2023/03/23 11:21:46;;;;;;;3.00;1.77;;;;;;;;;;5091752;28;20032;-58
2023/03/23 11:24:13;;;;;;;1.83;1.20;;;;;;;;;;5088625;28;20260;-58
2023/03/23 11:26:40;;;;;;;1.93;1.50;;;;;;;;;;5088320;28;21078;-58
2023/03/23 11:29:12;;;;;;;7.30;3.00;;;;;;;;;;5088582;28;20288;-59
2023/03/23 11:31:45;;;;;;;2.30;1.70;;;;;;;;;;5090279;28;20761;-58
2023/03/23 11:34:19;;;;;;;1.30;1.03;;;;;;;;;;5093398;28;20265;-58
2023/03/23 11:36:54;;;;;;;1.90;1.57;;;;;;;;;;5093455;28;20297;-59
2023/03/23 11:39:22;;;;;;;2.40;1.73;;;;;;;;;;5077774;28;20253;-58
2023/03/23 11:41:49;;;;;;;2.17;1.47;;;;;;;;;;5093686;28;20299;-58
2023/03/23 11:44:16;;;;;;;4.13;2.40;;;;;;;;;;5090459;28;20264;-58
2023/03/23 11:46:56;;;;;;;3.87;2.27;;;;;;;;;;5088447;28;20268;-58
2023/03/23 11:49:28;;;;;;;7.13;2.80;;;;;;;;;;5087484;28;20280;-58
2023/03/23 11:51:59;;;;;;;5.10;2.87;;;;;;;;;;5087822;28;20268;-58
2023/03/23 11:54:31;;;;;;;1.90;1.57;;;;;;;;;;5090216;28;20271;-59
2023/03/23 11:56:58;;;;;;;5.57;3.03;;;;;;;;;;5092554;28;20260;-58
2023/03/23 11:59:35;;;;;;;6.23;2.90;;;;;;;;;;5092291;28;20296;-58
2023/03/23 12:02:03;;;;;;;1.70;1.50;;;;;;;;;;5092401;28;20256;-58
2023/03/23 12:04:59;;;;;;;3.40;2.17;;;;;;;;;;5092650;28;20315;-58
2023/03/23 12:07:28;;;;;;;1.87;1.47;;;;;;;;;;5064160;28;20679;-58
2023/03/23 12:10:11;;;;;;;2.47;1.90;;;;;;;;;;5087070;28;20289;-58
2023/03/23 12:12:39;;;;;;;4.43;2.87;;;;;;;;;;5087114;28;20265;-58
2023/03/23 12:15:21;;;;;;;4.17;3.10;;;;;;;;;;5086620;28;20261;-58
2023/03/23 12:18:00;;;;;;;4.93;2.67;;;;;;;;;;5091845;28;20264;-57
2023/03/23 12:20:41;;;;;;;2.50;2.03;;;;;;;;;;5091903;28;20304;-58
2023/03/23 12:23:29;;;;;;;2.57;1.77;;;;;;;;;;5092492;28;20252;-58
2023/03/23 12:26:14;;;;;;;7.87;2.73;;;;;;;;;;5091790;28;20273;-58
2023/03/23 12:28:59;;;;;;;3.58;2.13;;;;;;;;;;5086561;28;20264;-58
2023/03/23 12:31:44;;;;;;;5.43;2.90;;;;;;;;;;5087047;28;20027;-59
2023/03/23 12:34:16;;;;;;;2.95;2.25;;;;;;;;;;5072899;28;20024;-58
2023/03/23 12:36:55;;;;;;;4.30;2.57;;;;;;;;;;5086683;28;20059;-58
2023/03/23 12:39:31;;;;;;;10.90;2.43;;;;;;;;;;5090236;28;20793;-58
2023/03/23 12:41:58;;;;;;;4.33;2.50;;;;;;;;;;5091512;28;20253;-58
2023/03/23 12:44:31;;;;;;;4.27;1.90;;;;;;;;;;5091691;28;20271;-58
2023/03/23 12:46:58;;;;;;;4.60;2.40;;;;;;;;;;5096238;28;20348;-58
2023/03/23 12:49:32;;;;;;;3.77;2.40;;;;;;;;;;5095500;28;20280;-58
2023/03/23 12:52:02;;;;;;;4.35;2.45;;;;;;;;;;5090863;28;20565;-58
2023/03/23 12:54:32;;;;;;;3.37;2.23;;;;;;;;;;5090523;28;20131;-58
2023/03/23 12:57:13;;;;;;;4.17;2.87;;;;;;;;;;5091027;28;20799;-58
2023/03/23 12:59:44;;;;;;;2.93;2.13;;;;;;;;;;5090219;28;20280;-58
2023/03/23 13:02:23;;;;;;;4.07;2.53;;;;;;;;;;5077402;28;20275;-58
2023/03/23 13:04:58;;;;;;;4.53;2.60;;;;;;;;;;5095380;28;20646;-58
2023/03/23 13:07:27;;;;;;;3.30;2.70;;;;;;;;;;5095555;28;20300;-58
2023/03/23 13:09:57;;;;;;;14.37;3.97;;;;;;;;;;5095631;28;20081;-58
2023/03/23 13:12:25;;;;;;;6.37;2.33;;;;;;;;;;5094956;28;20280;-58
2023/03/23 13:14:58;;;;;;;2.57;1.80;;;;;;;;;;5089365;28;20795;-58
2023/03/23 13:17:44;;;;;;;4.43;2.57;;;;;;;;;;5090380;28;20302;-58
2023/03/23 13:20:24;;;;;;;5.33;3.30;;;;;;;;;;5080464;28;20280;-58
2023/03/23 13:22:55;;;;;;;6.83;3.30;;;;;;;;;;5091549;28;20276;-59
2023/03/23 13:25:41;;;;;;;10.10;2.57;;;;;;;;;;5094629;28;20261;-58
2023/03/23 13:28:15;;;;;;;9.73;3.80;;;;;;;;;;5095205;28;20272;-58
2023/03/23 13:30:44;;;;;;;12.17;4.13;;;;;;;;;;5094898;28;20284;-58
2023/03/23 13:33:12;;;;;;;8.30;3.73;;;;;;;;;;5094922;28;20620;-58
2023/03/23 13:35:41;;;;;;;7.10;4.03;;;;;;;;;;5091840;28;20257;-59
2023/03/23 13:38:20;;;;;;;5.90;3.60;;;;;;;;;;5090205;28;20263;-59
2023/03/23 13:40:48;;;;;;;24.10;3.60;;;;;;;;;;5075088;28;20028;-58
2023/03/23 13:43:26;;;;;;;3.00;2.27;;;;;;;;;;5089784;28;20260;-59
2023/03/23 13:45:55;;;;;;;6.57;2.73;;;;;;;;;;5092404;28;20479;-58
2023/03/23 13:48:24;;;;;;;2.73;2.10;;;;;;;;;;5094732;28;20085;-59
2023/03/23 13:50:53;;;;;;;5.80;3.33;;;;;;;;;;5094542;28;20232;-58
2023/03/23 13:53:34;;;;;;;4.00;3.27;;;;;;;;;;5094590;28;20024;-58
2023/03/23 13:56:08;;;;;;;9.00;3.80;;;;;;;;;;5093947;28;20034;-59
2023/03/23 13:58:45;;;;;;;6.95;3.10;;;;;;;;;;5089937;28;20043;-59
2023/03/23 14:01:16;;;;;;;22.83;2.80;;;;;;;;;;5089272;28;20016;-59
2023/03/23 14:03:44;;;;;;;42.80;3.17;;;;;;;;;;5089134;28;20367;-59
2023/03/23 14:06:37;;;;;;;5.40;2.00;;;;;;;;;;5088954;28;20024;-60
2023/03/23 14:09:19;;;;;;;4.90;2.60;;;;;;;;;;5092456;28;20502;-58
2023/03/23 14:11:51;;;;;;;3.47;2.33;;;;;;;;;;5094362;28;20023;-58
2023/03/23 14:14:24;;;;;;;5.70;2.87;;;;;;;;;;5094189;28;20024;-59
2023/03/23 14:16:54;;;;;;;4.73;1.97;;;;;;;;;;5094033;28;20489;-58
2023/03/23 14:19:31;;;;;;;6.03;2.47;;;;;;;;;;5092720;28;20020;-59
2023/03/23 14:21:59;;;;;;;5.03;2.77;;;;;;;;;;5088985;28;20047;-59
2023/03/23 14:24:26;;;;;;;5.27;2.87;;;;;;;;;;5087039;28;20028;-59
2023/03/23 14:26:54;;;;;;;6.07;3.23;;;;;;;;;;5089019;28;20024;-61
2023/03/23 14:29:21;;;;;;;2.93;2.03;;;;;;;;;;5090005;28;20161;-60
2023/03/23 14:31:51;;;;;;;7.20;3.33;;;;;;;;;;5094190;28;20162;-59
2023/03/23 14:34:20;;;;;;;4.40;3.00;;;;;;;;;;5093480;28;20494;-60
2023/03/23 14:36:47;;;;;;;6.90;3.13;;;;;;;;;;5094139;28;20047;-58
2023/03/23 14:39:13;;;;;;;4.87;2.43;;;;;;;;;;5093491;28;20111;-58
2023/03/23 14:41:41;;;;;;;4.03;2.27;;;;;;;;;;5092393;28;20035;-59
2023/03/23 14:44:09;;;;;;;3.47;2.20;;;;;;;;;;5088192;28;20024;-59
2023/03/23 14:46:36;;;;;;;4.10;2.47;;;;;;;;;;5088928;28;20054;-59
2023/03/23 14:49:05;;;;;;;5.07;3.10;;;;;;;;;;5088572;28;20035;-59
2023/03/23 14:51:32;;;;;;;8.57;2.80;;;;;;;;;;5089371;28;20028;-58
2023/03/23 14:54:03;;;;;;;4.13;2.43;;;;;;;;;;5093000;28;20036;-59
2023/03/23 14:56:34;;;;;;;6.73;3.37;;;;;;;;;;5093799;28;20031;-59
2023/03/23 14:59:06;;;;;;;9.30;3.00;;;;;;;;;;5093112;28;20471;-59